sensor_id;sensor_type;location;lat;lon;timestamp;pressure;altitude;pressure_sealevel;temperature;humidity
5500;BME280;2772;42.700;23.304;2023-11-19T00:02:19;95114.91;;;5.13;100.00
5500;BME280;2772;42.700;23.304;2023-11-19T00:04:48;95110.41;;;5.18;100.00
5500;BME280;2772;42.700;23.304;2023-11-19T00:07:15;95110.97;;;5.10;100.00
5500;BME280;2772;42.700;23.304;2023-11-19T00:09:42;95103.78;;;5.21;100.00
5500;BME280;2772;42.700;23.304;2023-11-19T00:12:09;95098.22;;;5.22;100.00
5500;BME280;2772;42.700;23.304;2023-11-19T00:14:36;95090.84;;;5.19;100.00
5500;BME280;2772;42.700;23.304;2023-11-19T00:17:03;95111.44;;;5.17;100.00
5500;BME280;2772;42.700;23.304;2023-11-19T00:19:30;95110.41;;;5.18;100.00
5500;BME280;2772;42.700;23.304;2023-11-19T00:21:58;95119.88;;;5.24;100.00
5500;BME280;2772;42.700;23.304;2023-11-19T00:24:28;95109.31;;;5.19;100.00
5500;BME280;2772;42.700;23.304;2023-11-19T00:26:55;95120.72;;;5.10;100.00
5500;BME280;2772;42.700;23.304;2023-11-19T00:29:22;95106.44;;;5.11;100.00
5500;BME280;2772;42.700;23.304;2023-11-19T00:31:50;95105.66;;;5.15;100.00
5500;BME280;2772;42.700;23.304;2023-11-19T00:34:17;95105.13;;;5.18;100.00
5500;BME280;2772;42.700;23.304;2023-11-19T00:36:47;95117.19;;;5.29;100.00
5500;BME280;2772;42.700;23.304;2023-11-19T00:39:15;95106.03;;;5.37;100.00
5500;BME280;2772;42.700;23.304;2023-11-19T00:41:43;95108.47;;;5.34;100.00
5500;BME280;2772;42.700;23.304;2023-11-19T00:44:11;95115.75;;;5.47;100.00
5500;BME280;2772;42.700;23.304;2023-11-19T00:46:38;95108.97;;;5.36;100.00
5500;BME280;2772;42.700;23.304;2023-11-19T00:49:05;95105.75;;;5.44;100.00
5500;BME280;2772;42.700;23.304;2023-11-19T00:51:33;95121.41;;;5.30;100.00
5500;BME280;2772;42.700;23.304;2023-11-19T00:54:00;95121.97;;;5.27;100.00
5500;BME280;2772;42.700;23.304;2023-11-19T00:56:28;95114.59;;;5.24;100.00
5500;BME280;2772;42.700;23.304;2023-11-19T00:58:55;95109.03;;;5.26;100.00
5500;BME280;2772;42.700;23.304;2023-11-19T01:01:22;95117.78;;;5.21;100.00
5500;BME280;2772;42.700;23.304;2023-11-19T01:03:49;95117.00;;;5.11;100.00
5500;BME280;2772;42.700;23.304;2023-11-19T01:06:27;95116.78;;;5.07;100.00
5500;BME280;2772;42.700;23.304;2023-11-19T01:08:53;95118.06;;;5.15;100.00
5500;BME280;2772;42.700;23.304;2023-11-19T01:11:22;95118.09;;;5.05;100.00
5500;BME280;2772;42.700;23.304;2023-11-19T01:13:51;95125.75;;;5.06;100.00
5500;BME280;2772;42.700;23.304;2023-11-19T01:16:18;95124.44;;;5.09;100.00
5500;BME280;2772;42.700;23.304;2023-11-19T01:18:46;95128.44;;;5.01;100.00
5500;BME280;2772;42.700;23.304;2023-11-19T01:21:14;95116.56;;;4.99;100.00
5500;BME280;2772;42.700;23.304;2023-11-19T01:23:41;95134.47;;;5.07;100.00
5500;BME280;2772;42.700;23.304;2023-11-19T01:26:09;95127.34;;;5.07;100.00
5500;BME280;2772;42.700;23.304;2023-11-19T01:28:38;95125.81;;;4.96;100.00
5500;BME280;2772;42.700;23.304;2023-11-19T01:31:11;95127.06;;;5.14;100.00
5500;BME280;2772;42.700;23.304;2023-11-19T01:33:38;95132.84;;;5.11;100.00
5500;BME280;2772;42.700;23.304;2023-11-19T01:36:07;95126.00;;;5.05;100.00
5500;BME280;2772;42.700;23.304;2023-11-19T01:38:34;95137.66;;;4.93;100.00
5500;BME280;2772;42.700;23.304;2023-11-19T01:41:01;95129.97;;;5.07;100.00
5500;BME280;2772;42.700;23.304;2023-11-19T01:43:34;95133.38;;;5.08;100.00
5500;BME280;2772;42.700;23.304;2023-11-19T01:46:02;95121.00;;;5.03;100.00
5500;BME280;2772;42.700;23.304;2023-11-19T01:48:33;95139.28;;;4.89;100.00
5500;BME280;2772;42.700;23.304;2023-11-19T01:51:00;95147.19;;;4.89;100.00
5500;BME280;2772;42.700;23.304;2023-11-19T01:53:28;95143.50;;;4.85;100.00
5500;BME280;2772;42.700;23.304;2023-11-19T01:55:56;95154.63;;;4.77;100.00
5500;BME280;2772;42.700;23.304;2023-11-19T01:58:23;95162.81;;;4.76;100.00
5500;BME280;2772;42.700;23.304;2023-11-19T02:00:50;95166.75;;;4.78;100.00
5500;BME280;2772;42.700;23.304;2023-11-19T02:03:17;95167.75;;;4.93;100.00
5500;BME280;2772;42.700;23.304;2023-11-19T02:05:48;95159.03;;;4.97;100.00
5500;BME280;2772;42.700;23.304;2023-11-19T02:08:16;95154.84;;;4.91;100.00
5500;BME280;2772;42.700;23.304;2023-11-19T02:10:43;95148.53;;;4.87;100.00
5500;BME280;2772;42.700;23.304;2023-11-19T02:13:10;95149.78;;;5.00;100.00
5500;BME280;2772;42.700;23.304;2023-11-19T02:15:39;95147.75;;;4.86;100.00
5500;BME280;2772;42.700;23.304;2023-11-19T02:18:21;95150.31;;;4.97;100.00
5500;BME280;2772;42.700;23.304;2023-11-19T02:20:50;95147.94;;;4.95;100.00
5500;BME280;2772;42.700;23.304;2023-11-19T02:23:18;95141.66;;;4.86;100.00
5500;BME280;2772;42.700;23.304;2023-11-19T02:25:55;95137.19;;;4.81;100.00
5500;BME280;2772;42.700;23.304;2023-11-19T02:28:25;95138.81;;;4.72;100.00
5500;BME280;2772;42.700;23.304;2023-11-19T02:30:52;95142.50;;;4.71;100.00
5500;BME280;2772;42.700;23.304;2023-11-19T02:33:19;95142.28;;;4.63;100.00
5500;BME280;2772;42.700;23.304;2023-11-19T02:35:46;95130.97;;;4.47;100.00
5500;BME280;2772;42.700;23.304;2023-11-19T02:38:13;95122.78;;;4.44;100.00
5500;BME280;2772;42.700;23.304;2023-11-19T02:40:40;95123.34;;;4.41;100.00
5500;BME280;2772;42.700;23.304;2023-11-19T02:43:07;95134.16;;;4.34;100.00
5500;BME280;2772;42.700;23.304;2023-11-19T02:45:36;95120.47;;;4.32;100.00
5500;BME280;2772;42.700;23.304;2023-11-19T02:48:03;95129.41;;;4.36;100.00
5500;BME280;2772;42.700;23.304;2023-11-19T02:50:32;95136.50;;;4.36;100.00
5500;BME280;2772;42.700;23.304;2023-11-19T02:52:58;95138.13;;;4.32;100.00
5500;BME280;2772;42.700;23.304;2023-11-19T02:55:27;95137.31;;;4.36;100.00
5500;BME280;2772;42.700;23.304;2023-11-19T02:57:56;95128.38;;;4.32;100.00
5500;BME280;2772;42.700;23.304;2023-11-19T03:00:24;95131.00;;;4.32;100.00
5500;BME280;2772;42.700;23.304;2023-11-19T03:03:00;95132.31;;;4.35;100.00
5500;BME280;2772;42.700;23.304;2023-11-19T03:05:35;95128.88;;;4.34;100.00
5500;BME280;2772;42.700;23.304;2023-11-19T03:08:02;95132.03;;;4.36;100.00
5500;BME280;2772;42.700;23.304;2023-11-19T03:10:29;95143.13;;;4.33;100.00
5500;BME280;2772;42.700;23.304;2023-11-19T03:12:56;95148.34;;;4.43;100.00
5500;BME280;2772;42.700;23.304;2023-11-19T03:15:22;95142.84;;;4.35;100.00
5500;BME280;2772;42.700;23.304;2023-11-19T03:17:49;95152.59;;;4.39;100.00
5500;BME280;2772;42.700;23.304;2023-11-19T03:20:17;95152.59;;;4.34;100.00
5500;BME280;2772;42.700;23.304;2023-11-19T03:22:46;95150.22;;;4.43;100.00
5500;BME280;2772;42.700;23.304;2023-11-19T03:25:12;95139.41;;;4.29;100.00
5500;BME280;2772;42.700;23.304;2023-11-19T03:27:39;95140.22;;;4.35;100.00
5500;BME280;2772;42.700;23.304;2023-11-19T03:30:08;95137.31;;;4.31;100.00
5500;BME280;2772;42.700;23.304;2023-11-19T03:32:36;95137.59;;;4.25;100.00
5500;BME280;2772;42.700;23.304;2023-11-19T03:35:05;95135.25;;;4.18;100.00
5500;BME280;2772;42.700;23.304;2023-11-19T03:37:35;95136.81;;;4.19;100.00
5500;BME280;2772;42.700;23.304;2023-11-19T03:40:02;95143.91;;;4.14;100.00
5500;BME280;2772;42.700;23.304;2023-11-19T03:42:30;95162.66;;;4.07;100.00
5500;BME280;2772;42.700;23.304;2023-11-19T03:44:56;95151.59;;;4.10;100.00
5500;BME280;2772;42.700;23.304;2023-11-19T03:47:23;95166.31;;;4.11;100.00
5500;BME280;2772;42.700;23.304;2023-11-19T03:49:51;95171.88;;;4.15;100.00
5500;BME280;2772;42.700;23.304;2023-11-19T03:52:18;95171.06;;;4.14;100.00
5500;BME280;2772;42.700;23.304;2023-11-19T03:54:46;95187.94;;;4.08;100.00
5500;BME280;2772;42.700;23.304;2023-11-19T03:57:13;95172.63;;;4.15;100.00
5500;BME280;2772;42.700;23.304;2023-11-19T03:59:41;95174.47;;;4.25;100.00
5500;BME280;2772;42.700;23.304;2023-11-19T04:02:08;95187.41;;;4.31;100.00
5500;BME280;2772;42.700;23.304;2023-11-19T04:04:35;95187.94;;;4.33;100.00
5500;BME280;2772;42.700;23.304;2023-11-19T04:07:03;95194.00;;;4.29;100.00
5500;BME280;2772;42.700;23.304;2023-11-19T04:09:30;95202.69;;;4.39;100.00
5500;BME280;2772;42.700;23.304;2023-11-19T04:11:59;95198.22;;;4.45;100.00
5500;BME280;2772;42.700;23.304;2023-11-19T04:14:27;95205.84;;;4.41;100.00
5500;BME280;2772;42.700;23.304;2023-11-19T04:16:54;95222.72;;;4.40;100.00
5500;BME280;2772;42.700;23.304;2023-11-19T04:19:20;95216.13;;;4.28;100.00
5500;BME280;2772;42.700;23.304;2023-11-19T04:21:47;95215.06;;;4.44;100.00
5500;BME280;2772;42.700;23.304;2023-11-19T04:24:14;95218.22;;;4.41;100.00
5500;BME280;2772;42.700;23.304;2023-11-19T04:26:41;95215.06;;;4.49;100.00
5500;BME280;2772;42.700;23.304;2023-11-19T04:29:13;95210.31;;;4.46;100.00
5500;BME280;2772;42.700;23.304;2023-11-19T04:31:40;95213.22;;;4.39;100.00
5500;BME280;2772;42.700;23.304;2023-11-19T04:34:07;95222.19;;;4.43;100.00
5500;BME280;2772;42.700;23.304;2023-11-19T04:36:34;95221.91;;;4.55;100.00
5500;BME280;2772;42.700;23.304;2023-11-19T04:39:03;95230.34;;;4.52;100.00
5500;BME280;2772;42.700;23.304;2023-11-19T04:41:34;95221.69;;;4.46;100.00
5500;BME280;2772;42.700;23.304;2023-11-19T04:44:00;95221.41;;;4.48;100.00
5500;BME280;2772;42.700;23.304;2023-11-19T04:46:29;95217.97;;;4.37;100.00
5500;BME280;2772;42.700;23.304;2023-11-19T04:48:55;95214.53;;;4.42;100.00
5500;BME280;2772;42.700;23.304;2023-11-19T04:51:22;95221.13;;;4.39;100.00
5500;BME280;2772;42.700;23.304;2023-11-19T04:53:49;95222.72;;;4.35;100.00
5500;BME280;2772;42.700;23.304;2023-11-19T04:56:16;95215.34;;;4.42;100.00
5500;BME280;2772;42.700;23.304;2023-11-19T04:58:48;95222.19;;;4.53;100.00
5500;BME280;2772;42.700;23.304;2023-11-19T05:01:15;95224.81;;;4.48;100.00
5500;BME280;2772;42.700;23.304;2023-11-19T05:03:44;95223.78;;;4.49;100.00
5500;BME280;2772;42.700;23.304;2023-11-19T05:06:12;95236.94;;;4.54;100.00
5500;BME280;2772;42.700;23.304;2023-11-19T05:08:38;95258.56;;;4.61;100.00
5500;BME280;2772;42.700;23.304;2023-11-19T05:11:05;95261.19;;;4.51;100.00
5500;BME280;2772;42.700;23.304;2023-11-19T05:13:32;95255.41;;;4.39;100.00
5500;BME280;2772;42.700;23.304;2023-11-19T05:15:59;95249.59;;;4.47;100.00
5500;BME280;2772;42.700;23.304;2023-11-19T05:18:26;95245.91;;;4.53;100.00
5500;BME280;2772;42.700;23.304;2023-11-19T05:20:54;95234.31;;;4.64;100.00
5500;BME280;2772;42.700;23.304;2023-11-19T05:23:21;95242.72;;;4.71;100.00
5500;BME280;2772;42.700;23.304;2023-11-19T05:25:47;95249.59;;;4.72;100.00
5500;BME280;2772;42.700;23.304;2023-11-19T05:28:14;95246.69;;;4.74;100.00
5500;BME280;2772;42.700;23.304;2023-11-19T05:30:41;95235.34;;;4.73;100.00
5500;BME280;2772;42.700;23.304;2023-11-19T05:33:08;95246.16;;;4.72;100.00
5500;BME280;2772;42.700;23.304;2023-11-19T05:35:34;95246.69;;;4.64;100.00
5500;BME280;2772;42.700;23.304;2023-11-19T05:38:02;95239.56;;;4.54;100.00
5500;BME280;2772;42.700;23.304;2023-11-19T05:40:29;95245.38;;;4.61;100.00
5500;BME280;2772;42.700;23.304;2023-11-19T05:42:56;95255.41;;;4.59;100.00
5500;BME280;2772;42.700;23.304;2023-11-19T05:45:23;95253.81;;;4.63;100.00
5500;BME280;2772;42.700;23.304;2023-11-19T05:47:49;95255.13;;;4.71;100.00
5500;BME280;2772;42.700;23.304;2023-11-19T05:50:18;95261.72;;;4.73;100.00
5500;BME280;2772;42.700;23.304;2023-11-19T05:52:45;95263.84;;;4.66;100.00
5500;BME280;2772;42.700;23.304;2023-11-19T05:55:13;95264.38;;;4.63;100.00
5500;BME280;2772;42.700;23.304;2023-11-19T05:57:40;95268.59;;;4.59;100.00
5500;BME280;2772;42.700;23.304;2023-11-19T06:00:08;95265.97;;;4.49;100.00
5500;BME280;2772;42.700;23.304;2023-11-19T06:02:36;95274.41;;;4.46;100.00
5500;BME280;2772;42.700;23.304;2023-11-19T06:05:04;95279.13;;;4.39;100.00
5500;BME280;2772;42.700;23.304;2023-11-19T06:07:32;95277.28;;;4.50;100.00
5500;BME280;2772;42.700;23.304;2023-11-19T06:09:58;95279.38;;;4.53;100.00
5500;BME280;2772;42.700;23.304;2023-11-19T06:12:27;95268.59;;;4.49;100.00
5500;BME280;2772;42.700;23.304;2023-11-19T06:14:54;95280.19;;;4.33;100.00
5500;BME280;2772;42.700;23.304;2023-11-19T06:17:22;95281.78;;;4.44;100.00
5500;BME280;2772;42.700;23.304;2023-11-19T06:19:48;95284.13;;;4.41;100.00
5500;BME280;2772;42.700;23.304;2023-11-19T06:22:16;95274.91;;;4.33;100.00
5500;BME280;2772;42.700;23.304;2023-11-19T06:24:43;95287.56;;;4.36;100.00
5500;BME280;2772;42.700;23.304;2023-11-19T06:27:09;95280.72;;;4.35;100.00
5500;BME280;2772;42.700;23.304;2023-11-19T06:29:38;95287.28;;;4.28;100.00
5500;BME280;2772;42.700;23.304;2023-11-19T06:32:06;95292.84;;;4.41;100.00
5500;BME280;2772;42.700;23.304;2023-11-19T06:34:33;95278.59;;;4.42;100.00
5500;BME280;2772;42.700;23.304;2023-11-19T06:37:00;95287.59;;;4.46;100.00
5500;BME280;2772;42.700;23.304;2023-11-19T06:39:28;95298.41;;;4.45;100.00
5500;BME280;2772;42.700;23.304;2023-11-19T06:41:55;95300.75;;;4.46;100.00
5500;BME280;2772;42.700;23.304;2023-11-19T06:44:21;95289.13;;;4.37;100.00
5500;BME280;2772;42.700;23.304;2023-11-19T06:46:54;95300.22;;;4.34;100.00
5500;BME280;2772;42.700;23.304;2023-11-19T06:49:24;95301.28;;;4.38;100.00
5500;BME280;2772;42.700;23.304;2023-11-19T06:51:53;95298.41;;;4.45;100.00
5500;BME280;2772;42.700;23.304;2023-11-19T06:54:20;95295.75;;;4.40;100.00
5500;BME280;2772;42.700;23.304;2023-11-19T06:56:48;95295.72;;;4.20;100.00
5500;BME280;2772;42.700;23.304;2023-11-19T06:59:15;95296.50;;;4.25;100.00
5500;BME280;2772;42.700;23.304;2023-11-19T07:01:42;95296.75;;;4.14;100.00
5500;BME280;2772;42.700;23.304;2023-11-19T07:04:11;95296.75;;;4.19;100.00
5500;BME280;2772;42.700;23.304;2023-11-19T07:06:38;95294.41;;;4.22;100.00
5500;BME280;2772;42.700;23.304;2023-11-19T07:09:07;95305.50;;;4.24;100.00
5500;BME280;2772;42.700;23.304;2023-11-19T07:11:36;95317.59;;;4.25;100.00
5500;BME280;2772;42.700;23.304;2023-11-19T07:14:04;95300.47;;;4.18;100.00
5500;BME280;2772;42.700;23.304;2023-11-19T07:16:32;95304.94;;;4.17;100.00
5500;BME280;2772;42.700;23.304;2023-11-19T07:19:00;95298.63;;;4.28;100.00
5500;BME280;2772;42.700;23.304;2023-11-19T07:21:29;95294.44;;;4.32;100.00
5500;BME280;2772;42.700;23.304;2023-11-19T07:23:56;95305.25;;;4.31;100.00
5500;BME280;2772;42.700;23.304;2023-11-19T07:26:23;95312.88;;;4.27;100.00
5500;BME280;2772;42.700;23.304;2023-11-19T07:28:50;95313.63;;;4.28;100.00
5500;BME280;2772;42.700;23.304;2023-11-19T07:31:17;95309.44;;;4.17;100.00
5500;BME280;2772;42.700;23.304;2023-11-19T07:33:45;95322.59;;;4.22;100.00
5500;BME280;2772;42.700;23.304;2023-11-19T07:36:13;95330.50;;;4.22;100.00
5500;BME280;2772;42.700;23.304;2023-11-19T07:38:41;95338.69;;;4.30;100.00
5500;BME280;2772;42.700;23.304;2023-11-19T07:41:08;95334.22;;;4.41;100.00
5500;BME280;2772;42.700;23.304;2023-11-19T07:43:38;95338.16;;;4.43;100.00
5500;BME280;2772;42.700;23.304;2023-11-19T07:46:11;95341.63;;;4.54;100.00
5500;BME280;2772;42.700;23.304;2023-11-19T07:48:39;95322.94;;;4.60;100.00
5500;BME280;2772;42.700;23.304;2023-11-19T07:51:06;95332.94;;;4.58;100.00
5500;BME280;2772;42.700;23.304;2023-11-19T07:53:33;95336.88;;;4.61;100.00
5500;BME280;2772;42.700;23.304;2023-11-19T07:56:01;95340.84;;;4.58;100.00
5500;BME280;2772;42.700;23.304;2023-11-19T07:58:28;95336.34;;;4.64;100.00
5500;BME280;2772;42.700;23.304;2023-11-19T08:00:55;95338.47;;;4.62;100.00
5500;BME280;2772;42.700;23.304;2023-11-19T08:03:22;95342.44;;;4.74;100.00
5500;BME280;2772;42.700;23.304;2023-11-19T08:05:49;95357.19;;;4.85;100.00
5500;BME280;2772;42.700;23.304;2023-11-19T08:08:16;95342.97;;;4.92;100.00
5500;BME280;2772;42.700;23.304;2023-11-19T08:10:43;95349.28;;;4.96;100.00
5500;BME280;2772;42.700;23.304;2023-11-19T08:13:12;95354.56;;;5.01;100.00
5500;BME280;2772;42.700;23.304;2023-11-19T08:15:38;95363.00;;;4.93;100.00
5500;BME280;2772;42.700;23.304;2023-11-19T08:18:05;95370.66;;;4.94;100.00
5500;BME280;2772;42.700;23.304;2023-11-19T08:20:32;95369.06;;;4.88;100.00
5500;BME280;2772;42.700;23.304;2023-11-19T08:22:59;95366.16;;;4.64;100.00
5500;BME280;2772;42.700;23.304;2023-11-19T08:25:26;95364.03;;;4.71;100.00
5500;BME280;2772;42.700;23.304;2023-11-19T08:27:54;95359.03;;;4.55;100.00
5500;BME280;2772;42.700;23.304;2023-11-19T08:30:22;95362.72;;;4.49;100.00
5500;BME280;2772;42.700;23.304;2023-11-19T08:32:49;95354.00;;;4.48;100.00
5500;BME280;2772;42.700;23.304;2023-11-19T08:35:16;95355.06;;;4.47;100.00
5500;BME280;2772;42.700;23.304;2023-11-19T08:37:45;95367.75;;;4.55;100.00
5500;BME280;2772;42.700;23.304;2023-11-19T08:40:14;95372.75;;;4.62;100.00
5500;BME280;2772;42.700;23.304;2023-11-19T08:42:41;95387.78;;;4.71;100.00
5500;BME280;2772;42.700;23.304;2023-11-19T08:45:08;95383.59;;;4.80;100.00
5500;BME280;2772;42.700;23.304;2023-11-19T08:47:37;95380.66;;;4.67;100.00
5500;BME280;2772;42.700;23.304;2023-11-19T08:50:09;95369.59;;;4.75;100.00
5500;BME280;2772;42.700;23.304;2023-11-19T08:52:36;95369.31;;;4.71;100.00
5500;BME280;2772;42.700;23.304;2023-11-19T08:55:03;95384.09;;;4.82;100.00
5500;BME280;2772;42.700;23.304;2023-11-19T08:57:31;95387.53;;;4.78;100.00
5500;BME280;2772;42.700;23.304;2023-11-19T08:59:58;95389.66;;;4.76;100.00
5500;BME280;2772;42.700;23.304;2023-11-19T09:02:25;95378.56;;;4.74;100.00
5500;BME280;2772;42.700;23.304;2023-11-19T09:04:53;95357.19;;;4.70;100.00
5500;BME280;2772;42.700;23.304;2023-11-19T09:07:20;95362.75;;;4.79;100.00
5500;BME280;2772;42.700;23.304;2023-11-19T09:09:47;95361.41;;;4.81;100.00
5500;BME280;2772;42.700;23.304;2023-11-19T09:12:14;95362.22;;;4.87;100.00
5500;BME280;2772;42.700;23.304;2023-11-19T09:14:41;95363.00;;;4.93;100.00
5500;BME280;2772;42.700;23.304;2023-11-19T09:17:08;95346.38;;;4.92;100.00
5500;BME280;2772;42.700;23.304;2023-11-19T09:19:35;95364.84;;;4.97;100.00
5500;BME280;2772;42.700;23.304;2023-11-19T09:22:04;95379.88;;;5.02;100.00
5500;BME280;2772;42.700;23.304;2023-11-19T09:24:30;95377.78;;;4.88;100.00
5500;BME280;2772;42.700;23.304;2023-11-19T09:26:57;95378.84;;;5.03;100.00
5500;BME280;2772;42.700;23.304;2023-11-19T09:29:25;95379.91;;;5.17;100.00
5500;BME280;2772;42.700;23.304;2023-11-19T09:31:52;95382.00;;;5.20;100.00
5500;BME280;2772;42.700;23.304;2023-11-19T09:34:20;95360.63;;;5.16;100.00
5500;BME280;2772;42.700;23.304;2023-11-19T09:36:47;95359.56;;;5.27;100.00
5500;BME280;2772;42.700;23.304;2023-11-19T09:39:15;95358.75;;;5.42;100.00
5500;BME280;2772;42.700;23.304;2023-11-19T09:41:43;95354.78;;;5.39;100.00
5500;BME280;2772;42.700;23.304;2023-11-19T09:44:10;95357.44;;;5.19;100.00
5500;BME280;2772;42.700;23.304;2023-11-19T09:46:38;95342.41;;;5.20;100.00
5500;BME280;2772;42.700;23.304;2023-11-19T09:49:05;95324.97;;;5.34;100.00
5500;BME280;2772;42.700;23.304;2023-11-19T09:51:34;95311.50;;;5.30;100.00
5500;BME280;2772;42.700;23.304;2023-11-19T09:54:01;95306.50;;;5.19;100.00
5500;BME280;2772;42.700;23.304;2023-11-19T09:56:30;95301.47;;;5.27;100.00
5500;BME280;2772;42.700;23.304;2023-11-19T09:58:57;95306.47;;;5.29;100.00
5500;BME280;2772;42.700;23.304;2023-11-19T10:01:24;95305.22;;;4.96;100.00
5500;BME280;2772;42.700;23.304;2023-11-19T10:03:52;95296.78;;;5.04;100.00
5500;BME280;2772;42.700;23.304;2023-11-19T10:06:23;95303.34;;;5.12;100.00
5500;BME280;2772;42.700;23.304;2023-11-19T10:08:52;95289.56;;;5.30;100.00
5500;BME280;2772;42.700;23.304;2023-11-19T10:11:19;95298.78;;;5.37;100.00
5500;BME280;2772;42.700;23.304;2023-11-19T10:13:47;95296.94;;;5.38;100.00
5500;BME280;2772;42.700;23.304;2023-11-19T10:16:15;95297.22;;;5.36;100.00
5500;BME280;2772;42.700;23.304;2023-11-19T10:18:44;95304.09;;;5.32;100.00
5500;BME280;2772;42.700;23.304;2023-11-19T10:21:12;95312.00;;;5.37;100.00
5500;BME280;2772;42.700;23.304;2023-11-19T10:23:49;95313.84;;;5.42;100.00
5500;BME280;2772;42.700;23.304;2023-11-19T10:26:17;95314.06;;;5.55;100.00
5500;BME280;2772;42.700;23.304;2023-11-19T10:28:47;95301.97;;;6.08;100.00
5500;BME280;2772;42.700;23.304;2023-11-19T10:31:14;95288.09;;;5.72;100.00
5500;BME280;2772;42.700;23.304;2023-11-19T10:33:40;95302.91;;;5.68;100.00
5500;BME280;2772;42.700;23.304;2023-11-19T10:36:10;95298.38;;;5.79;100.00
5500;BME280;2772;42.700;23.304;2023-11-19T10:38:37;95283.09;;;5.76;100.00
5500;BME280;2772;42.700;23.304;2023-11-19T10:41:04;95288.66;;;5.69;100.00
5500;BME280;2772;42.700;23.304;2023-11-19T10:43:42;95303.22;;;5.62;100.00
5500;BME280;2772;42.700;23.304;2023-11-19T10:46:12;95301.66;;;5.51;100.00
5500;BME280;2772;42.700;23.304;2023-11-19T10:48:41;95298.22;;;5.60;100.00
5500;BME280;2772;42.700;23.304;2023-11-19T10:51:08;95299.44;;;5.78;100.00
5500;BME280;2772;42.700;23.304;2023-11-19T10:53:37;95311.56;;;5.89;100.00
5500;BME280;2772;42.700;23.304;2023-11-19T10:56:06;95298.41;;;5.84;100.00
5500;BME280;2772;42.700;23.304;2023-11-19T10:58:37;95295.22;;;5.82;100.00
5500;BME280;2772;42.700;23.304;2023-11-19T11:01:11;95287.19;;;6.02;100.00
5500;BME280;2772;42.700;23.304;2023-11-19T11:03:40;95277.53;;;6.26;100.00
5500;BME280;2772;42.700;23.304;2023-11-19T11:06:08;95264.81;;;6.28;100.00
5500;BME280;2772;42.700;23.304;2023-11-19T11:08:37;95265.78;;;6.42;100.00
5500;BME280;2772;42.700;23.304;2023-11-19T11:11:05;95254.47;;;6.36;100.00
5500;BME280;2772;42.700;23.304;2023-11-19T11:13:33;95259.16;;;6.44;100.00
5500;BME280;2772;42.700;23.304;2023-11-19T11:16:04;95260.50;;;6.37;100.00
5500;BME280;2772;42.700;23.304;2023-11-19T11:18:34;95242.53;;;6.39;100.00
5500;BME280;2772;42.700;23.304;2023-11-19T11:21:06;95255.75;;;6.39;99.74
5500;BME280;2772;42.700;23.304;2023-11-19T11:23:52;95244.84;;;6.45;98.75
5500;BME280;2772;42.700;23.304;2023-11-19T11:26:59;95253.22;;;6.58;96.44
5500;BME280;2772;42.700;23.304;2023-11-19T11:29:35;95254.25;;;6.62;94.80
5500;BME280;2772;42.700;23.304;2023-11-19T11:32:11;95242.31;;;6.64;93.93
5500;BME280;2772;42.700;23.304;2023-11-19T11:34:57;95248.09;;;6.71;95.67
5500;BME280;2772;42.700;23.304;2023-11-19T11:37:30;95263.72;;;6.68;95.31
5500;BME280;2772;42.700;23.304;2023-11-19T11:39:58;95243.81;;;6.75;96.88
5500;BME280;2772;42.700;23.304;2023-11-19T11:42:35;95242.63;;;6.91;100.00
5500;BME280;2772;42.700;23.304;2023-11-19T11:45:05;95223.31;;;6.86;95.00
5500;BME280;2772;42.700;23.304;2023-11-19T11:50:57;95229.75;;;6.80;94.44
5500;BME280;2772;42.700;23.304;2023-11-19T11:53:25;95227.94;;;6.75;94.69
5500;BME280;2772;42.700;23.304;2023-11-19T11:55:56;95215.91;;;6.88;100.00
5500;BME280;2772;42.700;23.304;2023-11-19T11:58:29;95240.81;;;6.87;99.54
5500;BME280;2772;42.700;23.304;2023-11-19T12:00:58;95234.16;;;6.89;98.40
5500;BME280;2772;42.700;23.304;2023-11-19T12:03:28;95250.44;;;7.01;97.25
5500;BME280;2772;42.700;23.304;2023-11-19T12:05:57;95224.16;;;6.81;94.89
5500;BME280;2772;42.700;23.304;2023-11-19T12:08:28;95220.69;;;6.86;96.44
5500;BME280;2772;42.700;23.304;2023-11-19T12:10:58;95213.91;;;6.75;98.79
5500;BME280;2772;42.700;23.304;2023-11-19T12:13:42;95212.34;;;6.74;98.01
5500;BME280;2772;42.700;23.304;2023-11-19T12:16:11;95209.25;;;6.90;100.00
5500;BME280;2772;42.700;23.304;2023-11-19T12:18:41;95207.06;;;6.97;97.34
5500;BME280;2772;42.700;23.304;2023-11-19T12:21:09;95207.03;;;7.02;99.31
5500;BME280;2772;42.700;23.304;2023-11-19T12:23:44;95197.22;;;7.03;100.00
5500;BME280;2772;42.700;23.304;2023-11-19T12:26:32;95195.41;;;6.98;97.33
5500;BME280;2772;42.700;23.304;2023-11-19T12:29:00;95195.25;;;6.90;95.69
5500;BME280;2772;42.700;23.304;2023-11-19T12:31:29;95197.13;;;6.84;97.92
5500;BME280;2772;42.700;23.304;2023-11-19T12:33:56;95198.50;;;6.82;98.62
5500;BME280;2772;42.700;23.304;2023-11-19T12:36:24;95189.44;;;6.88;100.00
5500;BME280;2772;42.700;23.304;2023-11-19T12:38:51;95191.25;;;6.92;100.00
5500;BME280;2772;42.700;23.304;2023-11-19T12:41:17;95181.81;;;6.81;99.61
5500;BME280;2772;42.700;23.304;2023-11-19T12:43:47;95176.81;;;6.80;100.00
5500;BME280;2772;42.700;23.304;2023-11-19T12:46:18;95180.31;;;6.99;100.00
5500;BME280;2772;42.700;23.304;2023-11-19T12:48:46;95166.22;;;7.03;99.90
5500;BME280;2772;42.700;23.304;2023-11-19T12:51:15;95169.81;;;6.89;99.04
5500;BME280;2772;42.700;23.304;2023-11-19T12:53:50;95169.06;;;6.88;99.13
5500;BME280;2772;42.700;23.304;2023-11-19T12:56:19;95166.69;;;6.87;100.00
5500;BME280;2772;42.700;23.304;2023-11-19T12:58:46;95162.25;;;6.82;100.00
5500;BME280;2772;42.700;23.304;2023-11-19T13:01:16;95162.44;;;6.86;100.00
5500;BME280;2772;42.700;23.304;2023-11-19T13:03:43;95157.09;;;6.91;100.00
5500;BME280;2772;42.700;23.304;2023-11-19T13:06:11;95158.63;;;6.73;100.00
5500;BME280;2772;42.700;23.304;2023-11-19T13:08:39;95156.75;;;6.74;100.00
5500;BME280;2772;42.700;23.304;2023-11-19T13:11:07;95154.06;;;6.79;100.00
5500;BME280;2772;42.700;23.304;2023-11-19T13:13:55;95152.72;;;6.81;100.00
5500;BME280;2772;42.700;23.304;2023-11-19T13:16:22;95152.28;;;6.74;100.00
5500;BME280;2772;42.700;23.304;2023-11-19T13:18:49;95149.78;;;6.83;100.00
5500;BME280;2772;42.700;23.304;2023-11-19T13:21:17;95155.34;;;6.81;98.11
5500;BME280;2772;42.700;23.304;2023-11-19T13:23:43;95143.25;;;6.75;97.81